Flight Track Log - Related Links

Times and Time Zones

All times are in EDT time to prevent confusion due to time zone crossing. See the UAL4553 flight status page for this flight to view local times or setup timezone preferences in your user account.

Time Position Orientation Groundspeed Altitude Reporting Facility
EDT Latitude Longitude Course Direction KTS MPH feet Rate Location/Type
Sat 08:07:00 PM 29.9834 -94.9587 90° East  Level FlightAware Approximate
Sat 08:08:00 PM 29.9833 -94.8338 90° East  Level FlightAware Approximate
Sat 08:09:00 PM 29.9834 -94.7089 90° East  Level FlightAware Approximate
Sat 08:10:00 PM 29.9833 -94.5841 90° East  Level FlightAware Approximate
Sat 08:11:00 PM 29.9834 -94.4592 90° East  Level FlightAware Approximate
Sat 08:12:00 PM 29.9833 -94.3343 90° East  Level FlightAware Approximate
Sat 08:13:00 PM 30.0010 -94.2118 77° East  Level FlightAware Approximate
Sat 08:14:00 PM 30.0201 -94.0891 85° East  Level FlightAware Approximate
Sat 08:15:00 PM 30.0297 -93.9646 85° East  Level FlightAware Approximate
Sat 08:16:00 PM 30.0436 -93.8408 81° East  Level FlightAware Approximate
Sat 08:17:00 PM 30.0602 -93.7173 81° East  Level FlightAware Approximate
Sat 08:18:00 PM 30.0766 -93.5938 81° East  Level FlightAware Approximate
Sat 08:19:00 PM 30.0930 -93.4702 81° East  Level FlightAware Approximate
Sat 08:20:00 PM 30.1075 -93.3463 83° East  Level FlightAware Approximate
Sat 08:21:00 PM 30.1206 -93.2222 83° East  Level FlightAware Approximate
Sat 08:22:00 PM 30.1335 -93.0981 84° East  Level FlightAware Approximate
Sat 08:23:00 PM 30.1448 -92.9737 84° East  Level FlightAware Approximate
Sat 08:24:00 PM 30.1500 -92.8489 90° East  Level FlightAware Approximate
Sat 08:25:00 PM 30.1500 -92.7238 90° East  Level FlightAware Approximate
Sat 08:26:00 PM 30.1592 -92.5993 84° East  Level FlightAware Approximate
Sat 08:27:00 PM 30.1667 -92.4746 90° East  Level FlightAware Approximate
Sat 08:28:00 PM 30.1667 -92.3495 90° East  Level FlightAware Approximate
Sat 08:29:00 PM 30.1768 -92.2261 74° East  Level FlightAware Approximate
Sat 08:30:00 PM 30.1833 -92.1020 90° East  Level FlightAware Approximate
Sat 08:31:00 PM 30.2000 -91.9833 77° East  Level FlightAware Approximate
Sat 08:32:00 PM 30.2050 -91.9877 77° East  Level Estimated
Sat 08:33:00 PM 30.2000 -91.9833 77° East  Level FlightAware Approximate
Sat 08:34:00 PM 30.2050 -91.9877 77° East  Level Estimated
Sat 08:35:00 PM 30.2000 -91.9833 77° East  Level FlightAware Approximate
Sat 08:36:00 PM 30.2050 -91.9877 77° East  Level Estimated
Sat 08:37:00 PM 30.2000 -91.9833 77° East  Level FlightAware Approximate

Login

Don't have an account? Register now (free) for customized features, flight alerts, and more!